Time;durP1;ratioP1;P1;durP2;ratioP2;P2;SDS_P1;SDS_P2;PMS_P1;PMS_P2;Temp;Humidity;BMP_temperature;BMP_pressure;BME280_temperature;BME280_humidity;BME280_pressure;Samples;Min_cycle;Max_cycle;Signal;HPM_P1;HPM_P2
2021/12/27 00:01:48;;;;;;;;;3.25;2.50;;;;;20.57;41.59;99578.78;5058472;28;45391;-54
2021/12/27 00:04:13;;;;;;;;;3.00;3.00;;;;;20.54;41.58;99569.34;5058385;28;45504;-53
2021/12/27 00:06:38;;;;;;;;;4.50;4.00;;;;;20.50;41.19;99560.03;5058838;28;45522;-56
2021/12/27 00:09:04;;;;;;;;;4.25;3.00;;;;;20.53;41.29;99564.19;5040061;28;47495;-54
2021/12/27 00:11:29;;;;;;;;;2.50;2.50;;;;;20.51;41.80;99559.03;5058164;28;45212;-53
2021/12/27 00:13:55;;;;;;;;;5.25;3.00;;;;;20.51;41.45;99560.84;5058385;28;45235;-53
2021/12/27 00:16:20;;;;;;;;;2.50;2.50;;;;;20.49;41.66;99554.84;5058513;28;45605;-51
2021/12/27 00:18:45;;;;;;;;;3.00;3.00;;;;;20.48;41.37;99542.66;5058128;28;46132;-52
2021/12/27 00:21:11;;;;;;;;;3.00;2.25;;;;;20.47;41.24;99551.50;5058373;28;45431;-48
2021/12/27 00:23:37;;;;;;;;;2.00;2.00;;;;;20.46;41.41;99552.44;5058225;28;45372;-53
2021/12/27 00:26:02;;;;;;;;;4.00;3.00;;;;;20.42;41.84;99548.38;5058310;28;45204;-53
2021/12/27 00:28:30;;;;;;;;;3.50;3.00;;;;;20.43;41.58;99547.44;5057798;28;45526;-52
2021/12/27 00:30:55;;;;;;;;;4.00;2.75;;;;;20.44;41.40;99551.75;5057808;28;45381;-53
2021/12/27 00:33:20;;;;;;;;;5.50;2.00;;;;;20.42;41.97;99554.47;5039913;28;45398;-52
2021/12/27 00:35:47;;;;;;;;;2.00;2.00;;;;;20.43;41.09;99539.53;5058234;28;45558;-52
2021/12/27 00:38:13;;;;;;;;;3.00;2.00;;;;;20.42;42.10;99540.47;5057996;28;47261;-53
2021/12/27 00:40:38;;;;;;;;;2.50;2.00;;;;;20.42;41.97;99535.22;5039650;28;45548;-55
2021/12/27 00:43:03;;;;;;;;;2.00;2.00;;;;;20.40;41.73;99535.31;5057905;28;45304;-54
2021/12/27 00:45:29;;;;;;;;;2.00;2.00;;;;;20.38;41.69;99530.19;5058015;28;45268;-53
2021/12/27 00:47:55;;;;;;;;;4.00;3.00;;;;;20.36;41.43;99534.72;5057706;28;45637;-51
2021/12/27 00:50:20;;;;;;;;;2.00;2.00;;;;;20.38;41.62;99532.81;5056751;28;45288;-54
2021/12/27 00:52:46;;;;;;;;;4.00;2.00;;;;;20.37;41.87;99543.47;5057351;28;45253;-53
2021/12/27 00:55:13;;;;;;;;;2.75;2.75;;;;;20.36;41.73;99537.34;5039928;28;45543;-53
2021/12/27 00:57:38;;;;;;;;;2.00;2.00;;;;;20.36;41.57;99534.72;5057537;28;45416;-55
2021/12/27 01:00:13;;;;;;;;;1.50;1.50;;;;;20.36;42.04;99533.91;5057481;28;45268;-56
2021/12/27 01:02:39;;;;;;;;;3.50;2.00;;;;;20.35;42.04;99532.22;5057696;28;45378;-54
2021/12/27 01:05:05;;;;;;;;;3.25;1.50;;;;;20.34;42.07;99531.34;5057622;28;45645;-55
2021/12/27 01:07:30;;;;;;;;;2.75;2.75;;;;;20.32;42.28;99528.03;5057169;28;45316;-54
2021/12/27 01:13:45;;;;;;;;;2.00;2.00;;;;;20.32;42.09;99516.66;5057353;28;45384;-55
2021/12/27 01:16:21;;;;;;;;;2.25;2.00;;;;;20.30;41.89;99519.41;5044017;28;45459;-54
2021/12/27 01:18:21;;;;;;;;;2.00;2.00;;;;;20.28;41.64;99516.03;5046239;28;46030;-55
2021/12/27 01:20:46;;;;;;;;;2.50;2.50;;;;;20.29;41.69;99514.25;5057383;28;45300;-54
2021/12/27 01:23:12;;;;;;;;;3.50;2.75;;;;;20.28;42.25;99509.97;5039525;28;45449;-55
2021/12/27 01:25:38;;;;;;;;;1.00;1.00;;;;;20.29;42.10;99514.25;5057324;28;45279;-55
2021/12/27 01:28:05;;;;;;;;;2.25;2.25;;;;;20.28;42.05;99507.31;5057108;28;46256;-54
2021/12/27 01:30:37;;;;;;;;;4.00;1.50;;;;;20.27;42.26;99511.72;5057000;28;45851;-54
2021/12/27 01:33:03;;;;;;;;;2.00;2.00;;;;;20.26;42.23;99507.41;5057210;28;45407;-54
2021/12/27 01:35:28;;;;;;;;;2.00;2.00;;;;;20.26;41.98;99502.16;5057209;28;45556;-54
2021/12/27 01:37:55;;;;;;;;;1.25;1.25;;;;;20.25;42.23;99497.84;5056757;28;50965;-54
2021/12/27 01:40:25;;;;;;;;;1.00;1.00;;;;;20.25;41.96;99495.22;5056926;28;45755;-54
2021/12/27 01:43:11;;;;;;;;;2.00;2.00;;;;;20.24;41.99;99493.53;5057013;28;45277;-55
2021/12/27 01:45:43;;;;;;;;;3.00;3.00;;;;;20.22;42.28;99487.56;5056766;28;45349;-54
2021/12/27 01:48:09;;;;;;;;;1.00;1.00;;;;;20.21;42.27;99491.16;5056710;28;46348;-56
2021/12/27 01:50:41;;;;;;;;;3.00;1.50;;;;;20.21;42.17;99480.63;5038641;28;45795;-53
2021/12/27 01:53:08;;;;;;;;;1.00;1.00;;;;;20.19;41.90;99485.16;5056736;28;45308;-55
2021/12/27 01:55:33;;;;;;;;;2.00;2.00;;;;;20.20;42.12;99476.34;5057067;28;45542;-54
2021/12/27 01:57:59;;;;;;;;;0.50;0.50;;;;;20.20;41.88;99484.22;5056389;28;45498;-54
2021/12/27 02:00:25;;;;;;;;;2.00;1.25;;;;;20.18;42.11;99484.31;5038680;28;45430;-53
2021/12/27 02:02:51;;;;;;;;;2.00;2.00;;;;;20.19;41.88;99493.06;5056241;28;45410;-53
2021/12/27 02:05:17;;;;;;;;;1.50;1.50;;;;;20.16;41.95;99486.25;5057034;28;45257;-56
2021/12/27 02:07:42;;;;;;;;;2.75;1.00;;;;;20.16;41.89;99485.41;5056359;28;46445;-54
2021/12/27 02:10:10;;;;;;;;;1.00;1.00;;;;;20.16;42.10;99494.16;5056439;28;45326;-55
2021/12/27 02:12:35;;;;;;;;;0.50;0.50;;;;;20.14;42.22;99488.16;5038421;28;45248;-55
2021/12/27 02:15:08;;;;;;;;;2.00;2.00;;;;;20.14;41.84;99484.66;5038742;28;45513;-55
2021/12/27 02:17:35;;;;;;;;;1.75;1.75;;;;;20.13;42.06;99480.34;5056165;28;45650;-55
2021/12/27 02:20:00;;;;;;;;;1.00;1.00;;;;;20.12;41.80;99479.53;5056424;28;45782;-53
2021/12/27 02:22:28;;;;;;;;;2.50;1.75;;;;;20.13;42.03;99480.34;5056487;28;45276;-55
2021/12/27 02:24:53;;;;;;;;;0.50;0.50;;;;;20.13;42.64;99475.94;5056567;28;45269;-53
2021/12/27 02:27:19;;;;;;;;;3.00;1.75;;;;;20.12;42.27;99470.81;5038409;28;48295;-55
2021/12/27 02:29:44;;;;;;;;;2.50;1.75;;;;;20.12;42.17;99468.19;5038107;28;46188;-55
2021/12/27 02:32:10;;;;;;;;;1.50;1.50;;;;;20.15;42.67;99458.25;5056287;28;45279;-55
2021/12/27 02:34:35;;;;;;;;;1.50;1.50;;;;;20.18;42.62;99458.00;5056646;28;45371;-55
2021/12/27 02:37:01;;;;;;;;;1.75;1.75;;;;;20.22;42.80;99462.09;5056051;28;47808;-55
2021/12/27 02:39:29;;;;;;;;;1.00;1.00;;;;;20.29;42.52;99465.09;5055970;28;45399;-55
2021/12/27 02:41:55;;;;;;;;;1.00;1.00;;;;;20.33;42.25;99465.69;5056284;28;45337;-54
2021/12/27 02:44:21;;;;;;;;;1.25;1.00;;;;;20.38;42.32;99469.66;5038577;28;45521;-54
2021/12/27 02:46:46;;;;;;;;;1.00;1.00;;;;;20.44;42.47;99463.09;5056217;28;45373;-55
2021/12/27 02:49:12;;;;;;;;;3.50;1.75;;;;;20.48;42.32;99467.16;5056101;28;45455;-55
2021/12/27 02:51:37;;;;;;;;;1.00;1.00;;;;;20.53;42.37;99456.28;5056235;28;45354;-54
2021/12/27 02:54:03;;;;;;;;;1.00;1.00;;;;;20.58;42.23;99453.28;5056250;28;45375;-54
2021/12/27 02:56:29;;;;;;;;;0.00;0.00;;;;;20.63;42.37;99451.13;5055935;28;45461;-56
2021/12/27 02:58:56;;;;;;;;;1.00;1.00;;;;;20.67;41.97;99449.94;5055964;28;45383;-54
2021/12/27 03:01:23;;;;;;;;;1.25;1.00;;;;;20.70;42.30;99437.38;5056200;28;45449;-54
2021/12/27 03:03:50;;;;;;;;;1.00;1.00;;;;;20.76;42.18;99440.53;5056579;28;45609;-54
2021/12/27 03:06:16;;;;;;;;;0.25;0.25;;;;;20.78;42.21;99438.63;5055702;28;46494;-54
2021/12/27 03:08:43;;;;;;;;;0.75;0.75;;;;;20.81;42.17;99439.22;5055421;28;45709;-53
2021/12/27 03:11:12;;;;;;;;;0.00;0.00;;;;;20.85;42.11;99439.81;5037810;28;45355;-54
2021/12/27 03:13:46;;;;;;;;;0.25;0.25;;;;;20.87;41.79;99437.03;5056142;28;45278;-56
2021/12/27 03:16:14;;;;;;;;;1.75;1.00;;;;;20.88;41.52;99431.66;5059288;28;45600;-54
2021/12/27 03:18:42;;;;;;;;;2.75;1.50;;;;;20.91;41.57;99434.03;5059175;28;45260;-56
2021/12/27 03:21:08;;;;;;;;;1.00;1.00;;;;;20.91;41.89;99426.13;5059419;28;45549;-59
2021/12/27 03:23:35;;;;;;;;;2.00;0.50;;;;;20.93;41.74;99432.13;5059452;28;45351;-54
2021/12/27 03:26:01;;;;;;;;;2.00;1.00;;;;;20.94;41.99;99433.81;5040907;28;46573;-55
2021/12/27 03:28:27;;;;;;;;;1.00;1.00;;;;;20.95;41.81;99427.56;5059090;28;45506;-55
2021/12/27 03:30:52;;;;;;;;;1.00;1.00;;;;;20.96;41.89;99421.34;5059395;28;45319;-55
2021/12/27 03:33:21;;;;;;;;;2.00;2.00;;;;;20.97;41.50;99428.28;5059542;28;45335;-56
2021/12/27 03:36:04;;;;;;;;;1.00;1.00;;;;;20.96;41.42;99421.34;5058777;28;45398;-55
2021/12/27 03:38:36;;;;;;;;;1.50;1.00;;;;;20.97;41.53;99416.91;5058903;28;45344;-54
2021/12/27 03:41:04;;;;;;;;;1.25;1.25;;;;;20.97;41.99;99406.38;5058860;28;45394;-54
2021/12/27 03:43:30;;;;;;;;;0.00;0.00;;;;;20.96;41.76;99407.31;5059191;28;45325;-54
2021/12/27 03:45:55;;;;;;;;;2.25;2.00;;;;;20.96;41.63;99407.31;5058522;28;45823;-55
2021/12/27 03:48:21;;;;;;;;;0.25;0.25;;;;;20.96;41.43;99405.56;5058810;28;45439;-54
2021/12/27 03:50:46;;;;;;;;;0.25;0.25;;;;;20.96;41.28;99397.66;5058790;28;45383;-54
2021/12/27 03:53:12;;;;;;;;;0.50;0.50;;;;;20.93;41.89;99386.53;5058888;28;45517;-55
2021/12/27 03:55:37;;;;;;;;;2.75;1.00;;;;;20.96;41.49;99394.16;5058459;28;46223;-54
2021/12/27 03:58:09;;;;;;;;;0.25;0.25;;;;;20.95;41.26;99393.34;5058627;28;45474;-54
2021/12/27 04:03:11;;;;;;;;;2.00;1.00;;;;;20.93;41.82;99386.53;5058521;28;45229;-54
2021/12/27 04:05:36;;;;;;;;;1.75;1.50;;;;;20.93;41.94;99392.63;5058281;28;46224;-54
2021/12/27 04:08:09;;;;;;;;;0.75;0.75;;;;;20.92;41.77;99387.47;5058215;28;45213;-55
2021/12/27 04:10:36;;;;;;;;;1.25;1.00;;;;;20.88;41.52;99384.25;5040524;28;45360;-54
2021/12/27 04:13:01;;;;;;;;;2.00;1.00;;;;;20.88;41.54;99386.91;5058527;28;45392;-54
2021/12/27 04:15:26;;;;;;;;;1.00;1.00;;;;;20.88;41.57;99386.03;5058118;28;45295;-54
2021/12/27 04:17:52;;;;;;;;;2.00;0.75;;;;;20.85;41.75;99376.59;5058484;28;45352;-54
2021/12/27 04:20:19;;;;;;;;;1.75;1.75;;;;;20.84;41.78;99380.19;5058442;28;45372;-54
2021/12/27 04:22:44;;;;;;;;;1.00;1.00;;;;;20.84;41.36;99377.56;5040329;28;45410;-54
2021/12/27 04:25:09;;;;;;;;;0.75;0.75;;;;;20.82;42.04;99377.69;5057606;28;45470;-56
2021/12/27 04:27:35;;;;;;;;;1.00;1.00;;;;;20.81;41.61;99372.53;5057979;28;45347;-54
2021/12/27 04:30:00;;;;;;;;;3.00;1.25;;;;;20.81;42.00;99375.16;5058159;28;45328;-55
2021/12/27 04:32:25;;;;;;;;;1.00;1.00;;;;;20.78;42.04;99373.63;5058540;28;45478;-53
2021/12/27 04:34:52;;;;;;;;;1.00;1.00;;;;;20.77;42.02;99371.13;5058040;28;45422;-55
2021/12/27 04:37:18;;;;;;;;;1.25;1.00;;;;;20.77;42.00;99382.47;5057784;28;45266;-54
2021/12/27 04:39:43;;;;;;;;;1.00;1.00;;;;;20.75;41.59;99375.66;5057987;28;45241;-54
2021/12/27 04:42:08;;;;;;;;;0.75;0.75;;;;;20.76;41.62;99377.34;5039894;28;45277;-55
2021/12/27 04:44:34;;;;;;;;;1.00;1.00;;;;;20.74;41.60;99373.94;5057477;28;46354;-56
2021/12/27 04:46:59;;;;;;;;;1.00;1.00;;;;;20.72;41.64;99379.34;5057771;28;45436;-53
2021/12/27 04:49:25;;;;;;;;;1.00;1.00;;;;;20.73;42.01;99388.06;5058171;28;45237;-55
2021/12/27 04:51:50;;;;;;;;;2.00;2.00;;;;;20.68;42.16;99381.38;5057885;28;45290;-54
2021/12/27 04:54:16;;;;;;;;;1.00;1.00;;;;;20.69;41.68;99385.69;5057555;28;46174;-53
2021/12/27 04:56:41;;;;;;;;;2.50;1.75;;;;;20.67;42.14;99392.84;5039501;28;45435;-54
2021/12/27 04:59:07;;;;;;;;;2.00;2.00;;;;;20.67;42.15;99390.22;5039557;28;45395;-54
2021/12/27 05:01:32;;;;;;;;;3.75;1.50;;;;;20.66;41.86;99398.25;5039702;28;45320;-56
2021/12/27 05:03:58;;;;;;;;;1.25;1.00;;;;;20.64;42.34;99401.00;5057486;28;45432;-55
2021/12/27 05:06:23;;;;;;;;;1.00;1.00;;;;;20.64;41.78;99400.16;5057634;28;45446;-54
2021/12/27 05:08:50;;;;;;;;;2.00;0.00;;;;;20.64;42.30;99400.16;5057411;28;45378;-55
2021/12/27 05:11:15;;;;;;;;;2.00;1.00;;;;;20.62;42.12;99402.91;5057713;28;45626;-56
2021/12/27 05:13:41;;;;;;;;;3.25;1.00;;;;;20.58;42.06;99404.09;5057251;28;46285;-54
2021/12/27 05:16:06;;;;;;;;;3.25;1.50;;;;;20.58;42.09;99406.75;5057272;28;45320;-53
2021/12/27 05:18:32;;;;;;;;;1.00;1.00;;;;;20.57;41.86;99405.06;5057552;28;45374;-56
2021/12/27 05:20:57;;;;;;;;;2.00;1.25;;;;;20.55;42.18;99402.56;5057753;28;45250;-54
2021/12/27 05:23:23;;;;;;;;;1.50;0.25;;;;;20.55;41.80;99401.75;5057155;28;46487;-55
2021/12/27 05:25:48;;;;;;;;;0.00;0.00;;;;;20.55;41.73;99404.38;5039156;28;45227;-53
2021/12/27 05:28:14;;;;;;;;;1.00;1.00;;;;;20.54;42.43;99407.97;5057358;28;45554;-55
2021/12/27 05:30:41;;;;;;;;;2.75;1.50;;;;;20.52;42.40;99401.97;5057488;28;45647;-53
2021/12/27 05:33:07;;;;;;;;;2.25;1.50;;;;;20.52;42.05;99399.34;5056911;28;45426;-54
2021/12/27 05:35:32;;;;;;;;;1.00;1.00;;;;;20.50;42.11;99388.09;5057117;28;45272;-54
2021/12/27 05:37:57;;;;;;;;;1.50;0.75;;;;;20.50;42.23;99388.09;5056676;28;45169;-54
2021/12/27 05:40:23;;;;;;;;;1.00;1.00;;;;;20.46;42.13;99373.47;5057233;28;45270;-55
2021/12/27 05:42:51;;;;;;;;;2.00;1.00;;;;;20.46;42.28;99366.44;5038516;28;47706;-55
2021/12/27 05:45:17;;;;;;;;;1.00;1.00;;;;;20.45;42.40;99369.19;5056860;28;45816;-54
2021/12/27 05:47:43;;;;;;;;;1.25;1.00;;;;;20.43;42.40;99356.16;5056854;28;45347;-54
2021/12/27 05:50:12;;;;;;;;;1.00;1.00;;;;;20.42;42.43;99353.66;5057291;28;45432;-55
2021/12/27 05:52:38;;;;;;;;;0.50;0.50;;;;;20.43;42.29;99344.78;5056728;28;45657;-54
2021/12/27 05:55:05;;;;;;;;;4.00;1.00;;;;;20.42;41.85;99336.03;5056651;28;45410;-55
2021/12/27 05:57:31;;;;;;;;;1.00;1.00;;;;;20.41;42.26;99330.91;5056940;28;45404;-53
2021/12/27 05:59:57;;;;;;;;;1.00;1.00;;;;;20.38;41.91;99322.28;5057136;28;45322;-55
2021/12/27 06:02:22;;;;;;;;;1.25;1.25;;;;;20.37;42.05;99315.34;5056425;28;45474;-54
2021/12/27 06:04:48;;;;;;;;;1.25;1.25;;;;;20.35;42.43;99298.84;5056570;28;45301;-53
2021/12/27 06:07:13;;;;;;;;;2.50;1.75;;;;;20.36;42.32;99297.91;5056494;28;45340;-55
2021/12/27 06:09:38;;;;;;;;;2.00;2.00;;;;;20.35;42.16;99290.97;5056849;28;45400;-55
2021/12/27 06:12:04;;;;;;;;;2.50;2.50;;;;;20.33;41.96;99277.13;5056453;28;45233;-54
2021/12/27 06:14:30;;;;;;;;;2.00;2.00;;;;;20.31;42.22;99260.59;5056742;28;45360;-53
2021/12/27 06:16:56;;;;;;;;;2.00;2.00;;;;;20.32;41.95;99259.66;5056710;28;45373;-55
2021/12/27 06:19:21;;;;;;;;;3.00;1.25;;;;;20.30;42.41;99248.41;5056828;28;45794;-53
2021/12/27 06:21:47;;;;;;;;;1.25;1.25;;;;;20.30;42.33;99245.78;5056312;28;45322;-54
2021/12/27 06:24:12;;;;;;;;;3.50;2.00;;;;;20.28;42.39;99231.91;5056311;28;45294;-53
2021/12/27 06:26:38;;;;;;;;;3.00;2.00;;;;;20.27;41.96;99222.34;5056127;28;45367;-55
2021/12/27 06:29:03;;;;;;;;;3.00;2.75;;;;;20.25;41.96;99221.63;5038346;28;45570;-53
2021/12/27 06:31:28;;;;;;;;;4.00;3.25;;;;;20.23;42.00;99213.00;5056537;28;45540;-55
2021/12/27 06:33:54;;;;;;;;;2.25;2.25;;;;;20.20;42.37;99203.56;5056148;28;45525;-54
2021/12/27 06:36:19;;;;;;;;;3.00;3.00;;;;;20.18;42.23;99196.75;5056334;28;45427;-55
2021/12/27 06:38:44;;;;;;;;;5.00;2.50;;;;;20.17;42.44;99184.56;5056300;28;45257;-54
2021/12/27 06:41:10;;;;;;;;;3.50;3.50;;;;;20.15;41.97;99175.97;5055986;28;45467;-54
2021/12/27 06:43:35;;;;;;;;;3.50;3.00;;;;;20.13;42.50;99178.72;5056135;28;45340;-52
2021/12/27 06:46:02;;;;;;;;;2.50;0.25;;;;;20.10;42.08;99171.06;5056350;28;45394;-53
2021/12/27 06:48:27;;;;;;;;;4.00;4.00;;;;;20.06;42.36;99165.22;5057478;28;45551;-54
2021/12/27 06:50:53;;;;;;;;;5.25;4.00;;;;;20.08;42.02;99175.59;5059337;28;45492;-54
2021/12/27 06:53:18;;;;;;;;;5.00;3.00;;;;;20.05;42.23;99176.69;5059443;28;45459;-56
2021/12/27 06:55:45;;;;;;;;;5.00;3.25;;;;;20.05;42.22;99178.50;5041275;28;45309;-55
2021/12/27 06:58:11;;;;;;;;;2.50;2.50;;;;;20.03;42.04;99177.78;5059631;28;45518;-55
2021/12/27 07:00:37;;;;;;;;;4.75;3.00;;;;;20.02;42.81;99179.56;5059247;28;46318;-55
2021/12/27 07:03:02;;;;;;;;;2.25;2.00;;;;;20.03;42.52;99181.25;5059685;28;45304;-56
2021/12/27 07:05:28;;;;;;;;;4.00;3.50;;;;;20.01;42.33;99184.97;5059291;28;45247;-54
2021/12/27 07:07:53;;;;;;;;;3.00;3.00;;;;;20.01;42.21;99183.16;5059341;28;45559;-55
2021/12/27 07:10:19;;;;;;;;;4.00;2.75;;;;;20.00;42.54;99178.03;5059045;28;46417;-56
2021/12/27 07:12:45;;;;;;;;;4.00;4.00;;;;;19.99;42.18;99179.81;5059166;28;45365;-54
2021/12/27 07:15:11;;;;;;;;;3.00;3.00;;;;;19.98;41.91;99180.78;5059355;28;45420;-55
2021/12/27 07:17:37;;;;;;;;;4.00;3.00;;;;;19.99;42.24;99179.81;5059397;28;45595;-54
2021/12/27 07:20:04;;;;;;;;;3.00;3.00;;;;;19.98;42.33;99170.25;5059250;28;46412;-55
2021/12/27 07:22:30;;;;;;;;;2.00;2.00;;;;;19.96;42.37;99177.44;5059245;28;45706;-55
2021/12/27 07:24:55;;;;;;;;;2.00;2.00;;;;;19.97;42.38;99171.22;5059020;28;45288;-54
2021/12/27 07:27:21;;;;;;;;;2.50;2.50;;;;;19.95;41.90;99159.97;5059276;28;45569;-56
2021/12/27 07:29:47;;;;;;;;;4.00;2.50;;;;;19.97;41.94;99165.09;5058967;28;45306;-55
2021/12/27 07:32:13;;;;;;;;;2.00;2.00;;;;;19.95;42.48;99178.38;5040818;28;45648;-56
2021/12/27 07:34:39;;;;;;;;;4.50;2.25;;;;;19.95;42.64;99183.66;5058966;28;45351;-54
2021/12/27 07:37:05;;;;;;;;;2.50;2.00;;;;;19.94;42.50;99184.59;5059321;28;45580;-56
2021/12/27 07:39:30;;;;;;;;;3.75;3.00;;;;;19.93;41.97;99190.81;5058995;28;46179;-56
2021/12/27 07:41:56;;;;;;;;;2.00;2.00;;;;;19.93;42.45;99188.19;5058715;28;45537;-54
2021/12/27 07:44:21;;;;;;;;;4.25;2.50;;;;;19.92;42.30;99197.03;5058821;28;45421;-55
2021/12/27 07:46:46;;;;;;;;;4.50;2.25;;;;;19.89;42.46;99178.88;5058850;28;45451;-53
2021/12/27 07:49:14;;;;;;;;;3.50;3.00;;;;;19.91;42.35;99183.06;5058492;28;45454;-54
2021/12/27 07:51:39;;;;;;;;;3.00;3.00;;;;;19.89;42.37;99173.63;5058479;28;45804;-54
2021/12/27 07:54:05;;;;;;;;;3.00;2.00;;;;;19.88;42.32;99182.47;5058953;28;45258;-52
2021/12/27 07:56:31;;;;;;;;;3.00;2.75;;;;;19.89;42.00;99176.25;5058945;28;45325;-52
2021/12/27 07:59:00;;;;;;;;;1.75;1.75;;;;;19.86;42.02;99174.69;5058446;28;45376;-54
2021/12/27 08:01:25;;;;;;;;;4.00;3.25;;;;;19.87;41.99;99179.00;5039612;28;45471;-53
2021/12/27 08:03:52;;;;;;;;;2.25;1.50;;;;;19.87;42.06;99175.53;5058507;28;45253;-52
2021/12/27 08:06:18;;;;;;;;;2.00;2.00;;;;;19.85;42.19;99166.91;5058506;28;45336;-52
2021/12/27 08:08:43;;;;;;;;;3.00;3.00;;;;;19.84;42.26;99167.84;5057826;28;46723;-55
2021/12/27 08:11:09;;;;;;;;;2.50;2.50;;;;;19.83;41.99;99167.03;5058435;28;45485;-52
2021/12/27 08:13:35;;;;;;;;;3.00;2.25;;;;;19.83;42.48;99169.66;5058662;28;45364;-51
2021/12/27 08:16:00;;;;;;;;;1.50;1.50;;;;;19.83;41.83;99169.66;5058522;28;45517;-51
2021/12/27 08:18:26;;;;;;;;;2.50;2.25;;;;;19.83;42.02;99168.81;5058030;28;46246;-50
2021/12/27 08:20:51;;;;;;;;;1.50;1.50;;;;;19.81;41.71;99166.31;5058067;28;45426;-55
2021/12/27 08:23:16;;;;;;;;;3.25;3.25;;;;;19.81;42.01;99168.09;5058161;28;45273;-51
2021/12/27 08:25:42;;;;;;;;;4.50;2.00;;;;;19.81;42.21;99162.81;5058186;28;45412;-53
2021/12/27 08:28:07;;;;;;;;;3.75;2.00;;;;;19.79;41.85;99157.69;5058063;28;46073;-52
2021/12/27 08:30:33;;;;;;;;;2.00;2.00;;;;;19.75;41.97;99146.59;5058117;28;45306;-55
2021/12/27 08:32:59;;;;;;;;;2.00;2.00;;;;;19.78;41.96;99151.63;5057927;28;45455;-52
2021/12/27 08:35:26;;;;;;;;;2.00;1.50;;;;;19.77;42.10;99149.09;5057981;28;45517;-51
2021/12/27 08:37:52;;;;;;;;;2.75;1.50;;;;;19.77;42.10;99149.09;5039639;28;47769;-52
2021/12/27 08:40:18;;;;;;;;;4.50;2.50;;;;;19.75;42.05;99151.00;5057880;28;45556;-50
2021/12/27 08:42:43;;;;;;;;;1.50;1.50;;;;;19.75;42.08;99151.00;5057883;28;45290;-49
2021/12/27 08:45:10;;;;;;;;;5.75;2.75;;;;;19.75;41.94;99149.22;5057911;28;45312;-51
2021/12/27 08:47:36;;;;;;;;;4.00;2.25;;;;;19.75;42.26;99156.25;5057863;28;45649;-55
2021/12/27 08:50:04;;;;;;;;;2.00;2.00;;;;;19.75;42.08;99151.84;5057582;28;45435;-53
2021/12/27 08:52:30;;;;;;;;;3.00;2.00;;;;;19.73;41.99;99145.88;5057701;28;45340;-53
2021/12/27 08:54:55;;;;;;;;;3.00;3.00;;;;;19.72;42.18;99136.31;5057811;28;45530;-52
2021/12/27 08:57:21;;;;;;;;;1.00;1.00;;;;;19.73;42.21;99134.53;5039463;28;45678;-50
2021/12/27 08:59:46;;;;;;;;;3.50;3.50;;;;;19.73;42.21;99135.38;5057423;28;45344;-53
2021/12/27 09:02:12;;;;;;;;;2.00;2.00;;;;;19.72;42.33;99125.81;5057578;28;45494;-52
2021/12/27 09:04:37;;;;;;;;;2.00;2.00;;;;;19.72;42.40;99120.53;5058045;28;45475;-53
2021/12/27 09:07:03;;;;;;;;;2.75;2.00;;;;;19.72;41.93;99130.25;5038819;28;45398;-56
2021/12/27 09:09:29;;;;;;;;;3.00;2.50;;;;;19.71;42.13;99133.81;5057070;28;45262;-55
2021/12/27 09:11:55;;;;;;;;;2.00;2.00;;;;;19.71;42.43;99132.00;5056206;28;45209;-52
2021/12/27 09:14:20;;;;;;;;;2.00;1.00;;;;;19.70;42.10;99132.16;5057620;28;45307;-54
2021/12/27 09:16:46;;;;;;;;;3.00;3.00;;;;;19.70;42.67;99127.72;5057040;28;45851;-50
2021/12/27 09:19:14;;;;;;;;;2.75;2.25;;;;;19.71;42.08;99129.38;5057191;28;45344;-55
2021/12/27 09:21:40;;;;;;;;;2.00;2.00;;;;;19.68;42.07;99134.88;5057529;28;45439;-54
2021/12/27 09:24:05;;;;;;;;;2.75;2.00;;;;;19.69;42.00;99128.66;5057514;28;45520;-55
2021/12/27 09:26:31;;;;;;;;;2.00;2.00;;;;;19.70;42.11;99129.53;5056917;28;45449;-53
2021/12/27 09:28:57;;;;;;;;;2.50;1.50;;;;;19.69;42.09;99120.78;5056925;28;45366;-54
2021/12/27 09:31:23;;;;;;;;;3.00;1.75;;;;;19.69;42.57;99126.03;5057065;28;45536;-55
2021/12/27 09:33:49;;;;;;;;;2.75;2.00;;;;;19.69;42.16;99125.22;5057162;28;45560;-50
2021/12/27 09:36:14;;;;;;;;;3.75;1.25;;;;;19.69;42.65;99126.03;5056725;28;46037;-54
2021/12/27 09:38:39;;;;;;;;;1.00;1.00;;;;;19.68;42.20;99113.84;5057167;28;45273;-53
2021/12/27 09:41:05;;;;;;;;;3.50;3.00;;;;;19.69;42.20;99119.97;5057041;28;45505;-54
2021/12/27 09:43:31;;;;;;;;;3.50;2.25;;;;;19.68;42.46;99118.28;5057097;28;45532;-54
2021/12/27 09:45:56;;;;;;;;;3.00;3.00;;;;;19.65;42.45;99116.75;5056500;28;46185;-53
2021/12/27 09:48:22;;;;;;;;;2.75;2.75;;;;;19.65;42.38;99108.00;5038669;28;45982;-55
2021/12/27 09:50:51;;;;;;;;;2.00;2.00;;;;;19.63;42.61;99106.34;5056819;28;45688;-52
2021/12/27 09:53:17;;;;;;;;;2.25;2.25;;;;;19.62;42.60;99109.91;5054355;28;45406;-54
2021/12/27 09:55:42;;;;;;;;;2.25;2.25;;;;;19.62;42.66;99114.34;5053855;28;46211;-53
2021/12/27 09:58:08;;;;;;;;;4.50;3.00;;;;;19.61;42.22;99107.41;5056483;28;45576;-53
2021/12/27 10:00:36;;;;;;;;;3.00;3.00;;;;;19.59;42.63;99112.81;5056715;28;45383;-53
2021/12/27 10:03:01;;;;;;;;;2.50;2.00;;;;;19.61;42.35;99112.66;5038362;28;45272;-56
2021/12/27 10:05:29;;;;;;;;;2.00;2.00;;;;;19.59;42.80;99114.59;5055924;28;46457;-53
2021/12/27 10:07:55;;;;;;;;;2.50;2.50;;;;;19.59;42.49;99125.94;5055729;28;45468;-56
2021/12/27 10:10:21;;;;;;;;;3.00;3.00;;;;;19.59;42.35;99110.19;5056542;28;45402;-55
2021/12/27 10:12:47;;;;;;;;;2.00;2.00;;;;;19.59;42.76;99114.59;5056442;28;45645;-54
2021/12/27 10:15:19;;;;;;;;;1.75;1.75;;;;;19.58;42.64;99118.16;5038217;28;47478;-55
2021/12/27 10:17:47;;;;;;;;;5.75;4.25;;;;;19.58;42.78;99119.00;5055149;28;46344;-56
2021/12/27 10:20:21;;;;;;;;;35.00;16.75;;;;;19.54;42.66;99109.69;5056480;28;45469;-53
2021/12/27 10:22:49;;;;;;;;;9.00;6.50;;;;;19.52;42.63;99108.16;5057239;28;45424;-55
2021/12/27 10:25:28;;;;;;;;;4.25;4.25;;;;;19.49;43.08;99113.63;5062598;28;46240;-54
2021/12/27 10:27:56;;;;;;;;;4.75;3.25;;;;;19.45;42.82;99108.63;5062361;28;45950;-54
2021/12/27 10:30:34;;;;;;;;;5.75;5.00;;;;;19.42;42.94;99101.00;5062724;28;45425;-55
2021/12/27 10:33:05;;;;;;;;;3.50;1.75;;;;;19.40;43.11;99120.47;5062379;28;45416;-54
2021/12/27 10:35:37;;;;;;;;;3.75;3.50;;;;;19.37;43.01;99111.00;5062144;28;46732;-53
2021/12/27 10:38:15;;;;;;;;;6.00;4.75;;;;;19.39;43.40;99098.59;5062738;28;45628;-54
2021/12/27 10:40:54;;;;;;;;;5.75;3.50;;;;;19.38;43.12;99091.66;5062751;28;45419;-55
2021/12/27 10:43:38;;;;;;;;;6.75;3.50;;;;;19.15;43.63;99098.72;5062806;28;45327;-55
2021/12/27 10:46:05;;;;;;;;;4.75;2.75;;;;;18.95;43.57;99094.97;5062073;28;45415;-54
2021/12/27 10:48:36;;;;;;;;;3.75;3.00;;;;;18.80;43.89;99097.78;5061413;28;45798;-53
2021/12/27 10:51:03;;;;;;;;;7.25;3.50;;;;;18.66;44.49;99096.19;5062747;28;45298;-53
2021/12/27 10:53:46;;;;;;;;;6.00;3.75;;;;;18.52;44.55;99102.50;5062965;28;45249;-53
2021/12/27 10:56:12;;;;;;;;;5.25;2.00;;;;;18.58;45.03;99097.72;5062117;28;45523;-48
2021/12/27 10:59:05;;;;;;;;;3.00;3.00;;;;;18.75;44.73;99102.56;5062603;28;45352;-55
2021/12/27 11:01:31;;;;;;;;;5.50;3.00;;;;;18.72;44.58;99100.16;5062739;28;45356;-55
2021/12/27 11:04:01;;;;;;;;;5.75;2.00;;;;;18.75;44.82;99092.06;5062774;28;45549;-55
2021/12/27 11:06:29;;;;;;;;;2.75;2.25;;;;;18.83;44.75;99105.44;5062538;28;46644;-56
2021/12/27 11:08:55;;;;;;;;;6.75;3.50;;;;;18.89;44.30;99105.94;5062467;28;45785;-55
2021/12/27 11:11:23;;;;;;;;;5.25;2.50;;;;;18.95;44.15;99100.22;5062608;28;45342;-53
2021/12/27 11:13:51;;;;;;;;;4.50;2.50;;;;;18.99;44.46;99113.00;5062877;28;45293;-50
2021/12/27 11:16:18;;;;;;;;;4.50;2.50;;;;;19.04;44.14;99125.78;5062122;28;47035;-51
2021/12/27 11:18:44;;;;;;;;;4.50;3.75;;;;;19.08;44.34;99115.88;5062654;28;45877;-50
2021/12/27 11:21:13;;;;;;;;;7.50;3.50;;;;;19.12;43.92;99109.44;5062442;28;45855;-50
2021/12/27 11:23:41;;;;;;;;;9.25;5.50;;;;;19.18;44.10;99113.41;5062567;28;45308;-49
2021/12/27 11:26:10;;;;;;;;;5.75;3.00;;;;;19.20;44.28;99122.00;5062096;28;45320;-52
2021/12/27 11:28:45;;;;;;;;;10.50;5.00;;;;;19.18;43.75;99111.63;5043746;28;45350;-51
2021/12/27 11:31:19;;;;;;;;;5.75;2.25;;;;;19.22;43.62;99118.28;5062154;28;45377;-51
2021/12/27 11:34:18;;;;;;;;;4.00;2.25;;;;;19.24;43.76;99119.00;5062789;28;45324;-52
2021/12/27 11:36:52;;;;;;;;;5.00;4.00;;;;;19.24;43.95;99113.75;5008262;28;46375;-56
2021/12/27 11:39:25;;;;;;;;;4.50;3.00;;;;;19.25;43.87;99111.94;5058881;28;45474;-54